Time;durP1;ratioP1;P1;durP2;ratioP2;P2;SDS_P1;SDS_P2;PMS_P1;PMS_P2;Temp;Humidity;BMP_temperature;BMP_pressure;BME280_temperature;BME280_humidity;BME280_pressure;Samples;Min_cycle;Max_cycle;Signal;HPM_P1;HPM_P2
2022/06/21 00:02:57;;;;;;;;;;;20.50;90.90;;;;;;6946053;28;19921;-81
2022/06/21 00:06:22;;;;;;;;;;;20.50;90.80;;;;;;6945328;28;19928;-81
2022/06/21 00:09:43;;;;;;;;;;;20.40;90.50;;;;;;6946596;28;19963;-81
2022/06/21 00:13:09;;;;;;;;;;;20.20;90.30;;;;;;6945550;28;19931;-82
2022/06/21 00:16:32;;;;;;;;;;;20.10;90.70;;;;;;6945716;28;19921;-81
2022/06/21 00:19:55;;;;;;;;;;;20.10;90.60;;;;;;6945446;28;19921;-80
2022/06/21 00:23:20;;;;;;;;;;;20.20;90.10;;;;;;6945766;28;19975;-81
2022/06/21 00:26:42;;;;;;;;;;;20.20;89.00;;;;;;6945060;28;19921;-81
2022/06/21 00:30:05;;;;;;;;;;;20.20;89.20;;;;;;6945680;28;19932;-81
2022/06/21 00:33:27;;;;;;;;;;;20.30;89.00;;;;;;6945211;28;19921;-81
2022/06/21 00:36:51;;;;;;;;;;;20.20;88.40;;;;;;6944495;28;19928;-81
2022/06/21 00:40:25;;;;;;;;;;;20.30;88.10;;;;;;6945349;28;20006;-81
2022/06/21 00:43:51;;;;;;;;;;;20.30;87.70;;;;;;6929634;28;19928;-81
2022/06/21 00:47:17;;;;;;;;;;;20.40;87.40;;;;;;6944797;28;20394;-82
2022/06/21 00:50:42;;;;;;;;;;;20.30;87.10;;;;;;6944057;28;19936;-82
2022/06/21 00:54:12;;;;;;;;;;;20.10;88.10;;;;;;6944127;28;20351;-81
2022/06/21 00:57:42;;;;;;;;;;;20.30;87.90;;;;;;6944778;28;19975;-81
2022/06/21 01:01:07;;;;;;;;;;;20.40;87.20;;;;;;6944392;28;19955;-79
2022/06/21 01:04:34;;;;;;;;;;;20.20;86.90;;;;;;6943365;28;20002;-80
2022/06/21 01:07:58;;;;;;;;;;;20.30;87.50;;;;;;6944061;28;19932;-80
2022/06/21 01:11:25;;;;;;;;;;;20.30;87.20;;;;;;6943942;28;19932;-79
2022/06/21 01:14:50;;;;;;;;;;;20.20;87.30;;;;;;6944398;28;20385;-81
2022/06/21 01:18:14;;;;;;;;;;;20.20;87.20;;;;;;6944763;28;20286;-82
2022/06/21 01:21:37;;;;;;;;;;;20.20;86.70;;;;;;6943727;28;20039;-80
2022/06/21 01:25:09;;;;;;;;;;;20.10;86.50;;;;;;6943616;28;19921;-81
2022/06/21 01:28:33;;;;;;;;;;;20.00;87.20;;;;;;6943560;28;19941;-80
2022/06/21 01:31:56;;;;;;;;;;;19.90;87.00;;;;;;6944089;28;19921;-80
2022/06/21 01:35:23;;;;;;;;;;;19.80;86.90;;;;;;6944100;28;19936;-81
2022/06/21 01:38:47;;;;;;;;;;;19.80;87.00;;;;;;6943768;28;19928;-82
2022/06/21 01:42:11;;;;;;;;;;;19.80;86.90;;;;;;6942610;28;19929;-81
2022/06/21 01:45:37;;;;;;;;;;;19.70;86.80;;;;;;6943049;28;19964;-82
2022/06/21 01:49:06;;;;;;;;;;;19.80;87.70;;;;;;6942749;28;19925;-81
2022/06/21 01:52:29;;;;;;;;;;;19.60;88.60;;;;;;6933833;28;20386;-80
2022/06/21 01:55:58;;;;;;;;;;;19.60;89.00;;;;;;6943297;28;19920;-80
2022/06/21 01:59:23;;;;;;;;;;;19.60;89.50;;;;;;6942503;28;19921;-80
2022/06/21 02:02:50;;;;;;;;;;;19.60;89.70;;;;;;6942868;28;19967;-81
2022/06/21 02:06:14;;;;;;;;;;;19.60;88.70;;;;;;6941910;28;19927;-80
2022/06/21 02:09:40;;;;;;;;;;;19.50;89.70;;;;;;6942595;28;19925;-81
2022/06/21 02:13:06;;;;;;;;;;;19.40;89.30;;;;;;6942635;28;20302;-81
2022/06/21 02:16:28;;;;;;;;;;;19.40;89.90;;;;;;6941928;28;19928;-80
2022/06/21 02:19:56;;;;;;;;;;;19.30;89.90;;;;;;6942541;28;19921;-80
2022/06/21 02:23:18;;;;;;;;;;;19.30;89.70;;;;;;6942154;28;19921;-81
2022/06/21 02:26:40;;;;;;;;;;;19.00;90.50;;;;;;6941747;28;19921;-82
2022/06/21 02:30:06;;;;;;;;;;;19.10;90.40;;;;;;6941781;28;19921;-82
2022/06/21 02:33:30;;;;;;;;;;;19.10;90.50;;;;;;6941691;28;19925;-81
2022/06/21 02:36:57;;;;;;;;;;;18.80;90.90;;;;;;6942469;28;19921;-80
2022/06/21 02:40:21;;;;;;;;;;;19.00;91.00;;;;;;6942312;28;19928;-80
2022/06/21 02:43:47;;;;;;;;;;;19.10;90.90;;;;;;6928985;28;19921;-82
2022/06/21 02:47:13;;;;;;;;;;;19.10;90.80;;;;;;6949225;28;19921;-82
2022/06/21 02:50:37;;;;;;;;;;;19.20;90.60;;;;;;6946265;28;19928;-82
2022/06/21 02:54:04;;;;;;;;;;;19.20;90.50;;;;;;6950014;28;19921;-83
2022/06/21 02:57:31;;;;;;;;;;;19.10;90.80;;;;;;6942976;28;19925;-81
2022/06/21 03:00:53;;;;;;;;;;;18.90;91.20;;;;;;6953968;28;19921;-83
2022/06/21 03:04:22;;;;;;;;;;;18.70;91.70;;;;;;6955872;28;20105;-81
2022/06/21 03:07:48;;;;;;;;;;;18.70;92.10;;;;;;6929020;28;19968;-81
2022/06/21 03:11:11;;;;;;;;;;;18.70;92.10;;;;;;6946711;28;19921;-78
2022/06/21 03:14:34;;;;;;;;;;;18.70;92.30;;;;;;6946466;28;19960;-81
2022/06/21 03:17:59;;;;;;;;;;;18.70;92.40;;;;;;6947192;28;19956;-81
2022/06/21 03:21:30;;;;;;;;;;;18.60;92.20;;;;;;6947089;28;19983;-83
2022/06/21 03:24:55;;;;;;;;;;;18.60;92.20;;;;;;6946956;28;19924;-82
2022/06/21 03:28:30;;;;;;;;;;;18.50;92.60;;;;;;6947165;28;19944;-82
2022/06/21 03:31:52;;;;;;;;;;;18.50;92.80;;;;;;6947129;28;19921;-81
2022/06/21 03:35:14;;;;;;;;;;;18.50;93.50;;;;;;6946827;28;19971;-82
2022/06/21 03:38:38;;;;;;;;;;;18.70;93.20;;;;;;6946467;28;19936;-80
2022/06/21 03:41:59;;;;;;;;;;;18.70;92.80;;;;;;6946984;28;19921;-81
2022/06/21 03:45:26;;;;;;;;;;;18.80;92.90;;;;;;6946377;28;20003;-81
2022/06/21 03:48:52;;;;;;;;;;;18.70;92.70;;;;;;6945918;28;20367;-81
2022/06/21 03:52:41;;;;;;;;;;;18.80;93.00;;;;;;6946624;28;19975;-79
2022/06/21 03:56:02;;;;;;;;;;;18.90;92.80;;;;;;6932886;28;19944;-84
2022/06/21 03:59:30;;;;;;;;;;;19.00;92.10;;;;;;6946285;28;19925;-84
2022/06/21 04:02:57;;;;;;;;;;;19.00;91.80;;;;;;6937205;28;19964;-87
2022/06/21 04:06:23;;;;;;;;;;;19.00;91.90;;;;;;6946892;28;20276;-88
2022/06/21 04:09:52;;;;;;;;;;;18.90;91.60;;;;;;6937726;28;20030;-89
2022/06/21 04:13:19;;;;;;;;;;;18.70;92.70;;;;;;6947828;28;19921;-90
2022/06/21 04:16:46;;;;;;;;;;;18.80;92.30;;;;;;6948718;28;19925;-90
2022/06/21 04:20:14;;;;;;;;;;;18.80;91.90;;;;;;6947734;28;19979;-89
2022/06/21 04:23:40;;;;;;;;;;;18.90;92.40;;;;;;6947151;28;20079;-86
2022/06/21 04:27:06;;;;;;;;;;;18.60;93.00;;;;;;6946941;28;19921;-88
2022/06/21 04:30:29;;;;;;;;;;;18.60;93.00;;;;;;6947576;28;19928;-87
2022/06/21 04:33:55;;;;;;;;;;;18.80;93.10;;;;;;6947339;28;20382;-88
2022/06/21 04:37:24;;;;;;;;;;;18.70;93.20;;;;;;6946082;28;19925;-88
2022/06/21 04:40:49;;;;;;;;;;;18.70;93.50;;;;;;6947964;28;19976;-87
2022/06/21 04:44:15;;;;;;;;;;;18.80;93.60;;;;;;6947203;28;19928;-88
2022/06/21 04:47:42;;;;;;;;;;;18.70;93.60;;;;;;6946984;28;19925;-87
2022/06/21 04:51:09;;;;;;;;;;;18.60;93.90;;;;;;6952623;28;19921;-88
2022/06/21 04:54:34;;;;;;;;;;;18.50;94.30;;;;;;6947077;28;19928;-88
2022/06/21 04:57:56;;;;;;;;;;;18.60;94.20;;;;;;6953131;28;19928;-88
2022/06/21 05:01:37;;;;;;;;;;;18.50;94.50;;;;;;6949078;28;19920;-88
2022/06/21 05:05:02;;;;;;;;;;;18.50;94.90;;;;;;6948833;28;19928;-87
2022/06/21 05:08:24;;;;;;;;;;;18.50;94.50;;;;;;6949103;28;20286;-88
2022/06/21 05:11:52;;;;;;;;;;;18.50;94.70;;;;;;6948046;28;19928;-88
2022/06/21 05:15:17;;;;;;;;;;;18.50;95.00;;;;;;6947448;28;20015;-89
2022/06/21 05:18:42;;;;;;;;;;;18.50;95.00;;;;;;6946945;28;19928;-88
2022/06/21 05:22:07;;;;;;;;;;;18.40;95.30;;;;;;6946348;28;20044;-88
2022/06/21 05:25:31;;;;;;;;;;;18.40;95.70;;;;;;6944749;28;20000;-89
2022/06/21 05:28:57;;;;;;;;;;;18.40;95.90;;;;;;6946027;28;19976;-88
2022/06/21 05:32:21;;;;;;;;;;;18.40;95.90;;;;;;6947093;28;20397;-89
2022/06/21 05:35:44;;;;;;;;;;;18.50;95.60;;;;;;6947843;28;19924;-87
2022/06/21 05:39:14;;;;;;;;;;;18.50;94.50;;;;;;6945992;28;19924;-88
2022/06/21 05:42:37;;;;;;;;;;;18.60;94.50;;;;;;6945770;28;20481;-89
2022/06/21 05:46:02;;;;;;;;;;;18.70;93.80;;;;;;6945713;28;19967;-89
2022/06/21 05:49:27;;;;;;;;;;;18.70;93.20;;;;;;6945317;28;19921;-88
2022/06/21 05:52:52;;;;;;;;;;;18.70;93.60;;;;;;6945638;28;19992;-89
2022/06/21 05:56:16;;;;;;;;;;;18.80;92.50;;;;;;6945144;28;19928;-88
2022/06/21 05:59:38;;;;;;;;;;;18.80;91.60;;;;;;6945729;28;19921;-89
2022/06/21 06:03:07;;;;;;;;;;;18.70;91.80;;;;;;6945648;28;19921;-89
2022/06/21 06:06:34;;;;;;;;;;;18.70;91.30;;;;;;6946159;28;20008;-89
2022/06/21 06:09:57;;;;;;;;;;;18.70;91.70;;;;;;6945439;28;20325;-89
2022/06/21 06:13:22;;;;;;;;;;;18.70;91.40;;;;;;6945558;28;19921;-90
2022/06/21 06:16:46;;;;;;;;;;;18.60;91.40;;;;;;6945159;28;19921;-89
2022/06/21 06:20:16;;;;;;;;;;;18.70;91.40;;;;;;6945213;28;19921;-89
2022/06/21 06:23:40;;;;;;;;;;;18.80;90.60;;;;;;6945570;28;20282;-89
2022/06/21 06:27:03;;;;;;;;;;;19.00;90.00;;;;;;6944202;28;19928;-89
2022/06/21 06:30:32;;;;;;;;;;;19.00;86.10;;;;;;6943115;28;20291;-88
2022/06/21 06:33:58;;;;;;;;;;;19.00;86.90;;;;;;6944554;28;19921;-89
2022/06/21 06:37:26;;;;;;;;;;;19.00;85.60;;;;;;6944278;28;19920;-90
2022/06/21 06:40:49;;;;;;;;;;;19.20;86.20;;;;;;6944428;28;19921;-88
2022/06/21 06:44:12;;;;;;;;;;;19.20;85.00;;;;;;6943636;28;20358;-89
2022/06/21 06:47:37;;;;;;;;;;;19.30;85.10;;;;;;6944235;28;19928;-87
2022/06/21 06:51:06;;;;;;;;;;;19.40;84.90;;;;;;6944032;28;19921;-89
2022/06/21 06:54:36;;;;;;;;;;;19.50;82.80;;;;;;6944124;28;19936;-88
2022/06/21 06:58:01;;;;;;;;;;;19.60;83.90;;;;;;6945041;28;20401;-89
2022/06/21 07:01:27;;;;;;;;;;;19.70;81.80;;;;;;6944150;28;20290;-88
2022/06/21 07:05:09;;;;;;;;;;;19.80;82.70;;;;;;6943720;28;19928;-88
2022/06/21 07:08:36;;;;;;;;;;;19.90;80.60;;;;;;6943754;28;19921;-89
2022/06/21 07:12:05;;;;;;;;;;;20.00;79.80;;;;;;6944097;28;19921;-89
2022/06/21 07:15:35;;;;;;;;;;;20.10;80.60;;;;;;6943817;28;19925;-89
2022/06/21 07:19:00;;;;;;;;;;;20.20;79.30;;;;;;6943976;28;19921;-89
2022/06/21 07:22:26;;;;;;;;;;;20.40;78.30;;;;;;6943372;28;19921;-88
2022/06/21 07:25:52;;;;;;;;;;;20.40;77.80;;;;;;6943380;28;19948;-88
2022/06/21 07:29:21;;;;;;;;;;;20.60;77.60;;;;;;6943852;28;19928;-89
2022/06/21 07:32:47;;;;;;;;;;;20.70;77.40;;;;;;6943198;28;19936;-88
2022/06/21 07:36:11;;;;;;;;;;;20.70;77.10;;;;;;6943315;28;19945;-87
2022/06/21 07:39:36;;;;;;;;;;;20.70;78.60;;;;;;6943036;28;19928;-89
2022/06/21 07:42:59;;;;;;;;;;;20.90;78.60;;;;;;6943310;28;19961;-90
2022/06/21 07:46:27;;;;;;;;;;;21.00;79.20;;;;;;6943240;28;20359;-87
2022/06/21 07:49:52;;;;;;;;;;;21.00;78.10;;;;;;6943645;28;20367;-89
2022/06/21 07:53:18;;;;;;;;;;;21.10;77.70;;;;;;6944298;28;19964;-89
2022/06/21 07:56:43;;;;;;;;;;;21.10;77.50;;;;;;6948161;28;20416;-89
2022/06/21 08:00:08;;;;;;;;;;;21.20;77.50;;;;;;6948404;28;19925;-90
2022/06/21 08:07:17;;;;;;;;;;;21.20;77.00;;;;;;6948050;28;19921;-88
2022/06/21 08:10:41;;;;;;;;;;;21.20;75.60;;;;;;6947613;28;19920;-88
2022/06/21 08:14:03;;;;;;;;;;;21.40;75.00;;;;;;6947774;28;19928;-87
2022/06/21 08:17:31;;;;;;;;;;;21.40;75.80;;;;;;6947487;28;19964;-89
2022/06/21 08:20:59;;;;;;;;;;;21.20;75.80;;;;;;6947791;28;19921;-90
2022/06/21 08:24:24;;;;;;;;;;;21.40;75.40;;;;;;6947946;28;19943;-89
2022/06/21 08:27:51;;;;;;;;;;;21.60;76.20;;;;;;6947367;28;19928;-88
2022/06/21 08:31:17;;;;;;;;;;;21.80;74.80;;;;;;6947222;28;19921;-88
2022/06/21 08:34:42;;;;;;;;;;;21.90;74.70;;;;;;6946979;28;20485;-87
2022/06/21 08:38:08;;;;;;;;;;;21.80;73.40;;;;;;6947421;28;19928;-88
2022/06/21 08:41:58;;;;;;;;;;;21.90;73.50;;;;;;6947704;28;19928;-88
2022/06/21 08:45:46;;;;;;;;;;;21.90;72.50;;;;;;6961134;28;19925;-88
2022/06/21 08:49:30;;;;;;;;;;;21.90;73.20;;;;;;6956307;28;19921;-89
2022/06/21 08:52:58;;;;;;;;;;;21.90;73.20;;;;;;6952690;28;19975;-86
2022/06/21 08:56:26;;;;;;;;;;;21.90;73.40;;;;;;6949336;28;19921;-83
2022/06/21 08:59:55;;;;;;;;;;;22.10;74.30;;;;;;6948666;28;19943;-87
2022/06/21 09:03:37;;;;;;;;;;;22.20;72.90;;;;;;6946241;28;20283;-88
2022/06/21 09:07:14;;;;;;;;;;;22.30;74.00;;;;;;6944070;28;19986;-87
2022/06/21 09:10:48;;;;;;;;;;;22.40;73.90;;;;;;6946063;28;19927;-87
2022/06/21 09:14:36;;;;;;;;;;;22.40;73.90;;;;;;6946001;28;20367;-88
2022/06/21 09:18:07;;;;;;;;;;;22.30;73.00;;;;;;6946021;28;20354;-88
2022/06/21 09:21:37;;;;;;;;;;;22.60;74.10;;;;;;6945689;28;19970;-88
2022/06/21 09:25:07;;;;;;;;;;;22.70;72.80;;;;;;6945157;28;20187;-85
2022/06/21 09:28:35;;;;;;;;;;;22.80;72.90;;;;;;6944256;28;19975;-88
2022/06/21 09:32:07;;;;;;;;;;;22.70;73.40;;;;;;6945319;28;19921;-86
2022/06/21 09:35:38;;;;;;;;;;;22.80;73.60;;;;;;6945260;28;19932;-86
2022/06/21 09:39:10;;;;;;;;;;;22.70;73.10;;;;;;6950391;28;19925;-87
2022/06/21 09:42:35;;;;;;;;;;;22.70;74.10;;;;;;6951429;28;19944;-87
2022/06/21 09:46:03;;;;;;;;;;;22.90;72.00;;;;;;6949169;28;19921;-87
2022/06/21 09:49:36;;;;;;;;;;;23.10;72.40;;;;;;6948903;28;19921;-87
2022/06/21 09:53:03;;;;;;;;;;;23.20;72.30;;;;;;6946005;28;19929;-87
2022/06/21 09:56:34;;;;;;;;;;;23.20;72.60;;;;;;6945032;28;19921;-86
2022/06/21 10:00:04;;;;;;;;;;;23.20;71.50;;;;;;6944586;28;20389;-86
2022/06/21 10:03:34;;;;;;;;;;;23.20;72.60;;;;;;6944659;28;19976;-84
2022/06/21 10:07:05;;;;;;;;;;;23.30;73.10;;;;;;6945163;28;20271;-85
2022/06/21 10:10:40;;;;;;;;;;;23.30;74.00;;;;;;6944383;28;19920;-87
2022/06/21 10:14:20;;;;;;;;;;;23.50;72.00;;;;;;6944574;28;19921;-87
2022/06/21 10:18:12;;;;;;;;;;;23.40;71.90;;;;;;6943858;28;19927;-86
2022/06/21 10:21:44;;;;;;;;;;;23.20;73.00;;;;;;6942950;28;19964;-86
2022/06/21 10:25:27;;;;;;;;;;;23.40;72.80;;;;;;6944137;28;19967;-86
2022/06/21 10:29:01;;;;;;;;;;;23.50;74.60;;;;;;6943838;28;19921;-87
2022/06/21 10:32:39;;;;;;;;;;;23.60;73.90;;;;;;6943859;28;19956;-86
2022/06/21 10:36:11;;;;;;;;;;;23.60;74.40;;;;;;6944268;28;19928;-86
2022/06/21 10:40:30;;;;;;;;;;;23.80;74.70;;;;;;6943564;28;19928;-85
2022/06/21 10:44:04;;;;;;;;;;;23.80;76.50;;;;;;6940528;28;20298;-86
2022/06/21 10:47:40;;;;;;;;;;;24.10;73.80;;;;;;6941463;28;19921;-87
2022/06/21 10:51:09;;;;;;;;;;;24.10;73.50;;;;;;6942596;28;19921;-87
2022/06/21 10:54:53;;;;;;;;;;;24.20;74.90;;;;;;6942426;28;19991;-85
2022/06/21 10:58:28;;;;;;;;;;;24.30;75.10;;;;;;6943361;28;19928;-86
2022/06/21 11:01:57;;;;;;;;;;;24.40;76.00;;;;;;6943369;28;19975;-88
2022/06/21 11:05:26;;;;;;;;;;;24.60;74.70;;;;;;6943544;28;20255;-88
2022/06/21 11:08:56;;;;;;;;;;;24.70;76.00;;;;;;6943119;28;19928;-87
2022/06/21 11:16:06;;;;;;;;;;;24.90;75.60;;;;;;6943248;28;19921;-86
2022/06/21 11:19:36;;;;;;;;;;;25.00;76.30;;;;;;6943133;28;19920;-87
2022/06/21 11:23:05;;;;;;;;;;;25.10;76.90;;;;;;6943370;28;19963;-86
2022/06/21 11:26:42;;;;;;;;;;;25.30;74.30;;;;;;6941360;28;19925;-87
2022/06/21 11:30:09;;;;;;;;;;;25.40;75.30;;;;;;6947166;28;19921;-87
2022/06/21 11:33:34;;;;;;;;;;;25.40;75.80;;;;;;6948091;28;20023;-86
2022/06/21 11:37:03;;;;;;;;;;;25.60;77.10;;;;;;6950370;28;19928;-87
2022/06/21 11:40:41;;;;;;;;;;;25.80;77.10;;;;;;6949143;28;20359;-86
2022/06/21 11:44:12;;;;;;;;;;;25.80;77.80;;;;;;6948152;28;20321;-87
2022/06/21 11:48:01;;;;;;;;;;;25.90;75.30;;;;;;6947995;28;19921;-85
2022/06/21 11:51:42;;;;;;;;;;;26.00;74.80;;;;;;6949949;28;20032;-86
2022/06/21 11:55:18;;;;;;;;;;;26.00;74.20;;;;;;6947955;28;19928;-86
2022/06/21 11:58:46;;;;;;;;;;;26.00;75.00;;;;;;6948910;28;19925;-86
2022/06/21 12:02:15;;;;;;;;;;;26.00;74.20;;;;;;6947532;28;19928;-85
2022/06/21 12:05:41;;;;;;;;;;;25.80;74.90;;;;;;6947760;28;19958;-86
2022/06/21 12:09:08;;;;;;;;;;;25.90;75.30;;;;;;6947419;28;19980;-85
2022/06/21 12:12:45;;;;;;;;;;;25.90;75.90;;;;;;6949444;28;19925;-84
2022/06/21 12:16:26;;;;;;;;;;;26.00;75.20;;;;;;6950528;28;19936;-85
2022/06/21 12:19:52;;;;;;;;;;;26.20;75.80;;;;;;6948118;28;19921;-87
2022/06/21 12:23:19;;;;;;;;;;;26.50;74.80;;;;;;6947295;28;19921;-84
2022/06/21 12:26:42;;;;;;;;;;;26.70;73.40;;;;;;6947366;28;20310;-85
2022/06/21 12:30:16;;;;;;;;;;;26.80;74.30;;;;;;6946880;28;19979;-85
2022/06/21 12:33:39;;;;;;;;;;;27.10;73.50;;;;;;6946969;28;19928;-86
2022/06/21 12:37:03;;;;;;;;;;;26.90;73.80;;;;;;6947149;28;19931;-84
2022/06/21 12:40:31;;;;;;;;;;;27.00;71.90;;;;;;6945211;28;19929;-85
2022/06/21 12:44:00;;;;;;;;;;;26.90;72.50;;;;;;6946387;28;19959;-86
2022/06/21 12:47:35;;;;;;;;;;;27.00;72.70;;;;;;6946526;28;19924;-85
2022/06/21 12:51:04;;;;;;;;;;;27.10;72.50;;;;;;6946539;28;19921;-85
2022/06/21 12:54:40;;;;;;;;;;;27.40;71.90;;;;;;6946201;28;19921;-86
2022/06/21 12:58:10;;;;;;;;;;;27.50;71.20;;;;;;6946472;28;19970;-85
2022/06/21 13:01:39;;;;;;;;;;;27.50;71.20;;;;;;6946086;28;19925;-86
2022/06/21 13:05:20;;;;;;;;;;;27.60;71.50;;;;;;6945937;28;19928;-85
2022/06/21 13:08:55;;;;;;;;;;;27.60;71.70;;;;;;6945700;28;20290;-86
2022/06/21 13:12:48;;;;;;;;;;;27.90;71.50;;;;;;6945574;28;19936;-84
2022/06/21 13:16:19;;;;;;;;;;;28.00;71.50;;;;;;6945914;28;20342;-85
2022/06/21 13:19:48;;;;;;;;;;;28.00;72.10;;;;;;6947525;28;19983;-84
2022/06/21 13:23:19;;;;;;;;;;;28.30;71.00;;;;;;6947344;28;19979;-85
2022/06/21 13:26:58;;;;;;;;;;;28.50;70.80;;;;;;6945641;28;19960;-85
2022/06/21 13:30:34;;;;;;;;;;;28.80;69.80;;;;;;6945477;28;19928;-85
2022/06/21 13:34:06;;;;;;;;;;;28.80;70.40;;;;;;6946936;28;19967;-84
2022/06/21 13:37:32;;;;;;;;;;;29.00;68.70;;;;;;6945338;28;19921;-86
2022/06/21 13:41:02;;;;;;;;;;;28.90;68.30;;;;;;6944875;28;19921;-85
2022/06/21 13:44:27;;;;;;;;;;;29.20;68.80;;;;;;6944768;28;19928;-85
2022/06/21 13:47:53;;;;;;;;;;;29.10;67.50;;;;;;6944595;28;20433;-85
2022/06/21 13:51:31;;;;;;;;;;;28.90;68.70;;;;;;6944047;28;19928;-85
2022/06/21 13:54:58;;;;;;;;;;;29.10;68.00;;;;;;6944571;28;19956;-84
2022/06/21 13:58:32;;;;;;;;;;;29.40;68.10;;;;;;6944377;28;20290;-85
2022/06/21 14:02:00;;;;;;;;;;;29.60;68.80;;;;;;6944481;28;20014;-86
2022/06/21 14:05:27;;;;;;;;;;;29.80;68.70;;;;;;6944609;28;19976;-85
2022/06/21 14:08:53;;;;;;;;;;;29.90;67.30;;;;;;6944575;28;19921;-85
2022/06/21 14:12:21;;;;;;;;;;;30.00;66.50;;;;;;6944594;28;19925;-85
2022/06/21 14:15:51;;;;;;;;;;;30.30;66.90;;;;;;6944463;28;19932;-84
2022/06/21 14:19:18;;;;;;;;;;;30.50;66.60;;;;;;6943980;28;19932;-86
2022/06/21 14:22:44;;;;;;;;;;;30.70;65.40;;;;;;6944728;28;19974;-84
2022/06/21 14:26:11;;;;;;;;;;;30.70;65.60;;;;;;6941769;28;19925;-86
2022/06/21 14:29:38;;;;;;;;;;;31.00;65.10;;;;;;6942142;28;20397;-87
2022/06/21 14:33:10;;;;;;;;;;;31.10;63.90;;;;;;6942352;28;20290;-85
2022/06/21 14:36:37;;;;;;;;;;;31.00;63.00;;;;;;6942861;28;19925;-84
2022/06/21 14:40:08;;;;;;;;;;;30.90;63.40;;;;;;6944046;28;20339;-85
2022/06/21 14:43:36;;;;;;;;;;;30.70;63.30;;;;;;6934079;28;19936;-85
2022/06/21 14:47:01;;;;;;;;;;;30.70;63.40;;;;;;6929052;28;19925;-83
2022/06/21 14:50:28;;;;;;;;;;;30.70;63.20;;;;;;6939936;28;19936;-85
2022/06/21 14:54:12;;;;;;;;;;;30.80;63.50;;;;;;6963487;28;19912;-84
2022/06/21 14:57:45;;;;;;;;;;;31.00;63.80;;;;;;6959846;28;19921;-85
2022/06/21 15:01:13;;;;;;;;;;;31.00;63.40;;;;;;6954810;28;20388;-86
2022/06/21 15:04:41;;;;;;;;;;;31.00;62.90;;;;;;6935476;28;19928;-86
2022/06/21 15:08:12;;;;;;;;;;;31.10;62.80;;;;;;6939032;28;19924;-86
2022/06/21 15:11:57;;;;;;;;;;;31.10;62.90;;;;;;6942467;28;19921;-86
2022/06/21 15:15:21;;;;;;;;;;;30.90;63.00;;;;;;6942556;28;20434;-86
2022/06/21 15:18:52;;;;;;;;;;;31.20;62.60;;;;;;6934318;28;19932;-85
2022/06/21 15:22:22;;;;;;;;;;;31.10;62.70;;;;;;6934545;28;19982;-84
2022/06/21 15:25:53;;;;;;;;;;;31.30;63.00;;;;;;6941719;28;19967;-83
2022/06/21 15:29:19;;;;;;;;;;;31.40;62.50;;;;;;6918682;28;19924;-82
2022/06/21 15:32:44;;;;;;;;;;;31.60;62.80;;;;;;6939841;28;20416;-84
2022/06/21 15:36:15;;;;;;;;;;;31.70;62.00;;;;;;6938056;28;19965;-84
2022/06/21 15:39:45;;;;;;;;;;;31.80;62.30;;;;;;6941184;28;19921;-83
2022/06/21 15:43:14;;;;;;;;;;;31.80;61.10;;;;;;6939687;28;19956;-83
2022/06/21 15:46:37;;;;;;;;;;;31.50;61.00;;;;;;6938159;28;19921;-83
2022/06/21 15:50:13;;;;;;;;;;;31.50;61.20;;;;;;6940279;28;19961;-84
2022/06/21 15:53:42;;;;;;;;;;;31.80;61.40;;;;;;6928393;28;19928;-85
2022/06/21 15:57:11;;;;;;;;;;;31.80;60.50;;;;;;6936703;28;20040;-85
2022/06/21 16:00:39;;;;;;;;;;;32.40;59.70;;;;;;6939305;28;19921;-85
2022/06/21 16:04:12;;;;;;;;;;;32.80;58.50;;;;;;6942724;28;20020;-82
2022/06/21 16:07:36;;;;;;;;;;;32.80;58.00;;;;;;6938176;28;20016;-83
2022/06/21 16:11:10;;;;;;;;;;;32.50;58.60;;;;;;6940087;28;19968;-83
2022/06/21 16:14:36;;;;;;;;;;;32.40;58.90;;;;;;6936369;28;19936;-83
2022/06/21 16:18:03;;;;;;;;;;;32.30;59.60;;;;;;6930275;28;19935;-83
2022/06/21 16:21:31;;;;;;;;;;;32.20;59.20;;;;;;6946615;28;19920;-83
2022/06/21 16:24:56;;;;;;;;;;;32.10;59.70;;;;;;6947529;28;19960;-84
2022/06/21 16:28:23;;;;;;;;;;;32.30;59.40;;;;;;6923563;28;19922;-82
2022/06/21 16:35:35;;;;;;;;;;;32.40;59.00;;;;;;6944946;28;19921;-85
2022/06/21 16:38:59;;;;;;;;;;;32.40;58.80;;;;;;6945396;28;20563;-83
2022/06/21 16:46:07;;;;;;;;;;;32.50;57.80;;;;;;6927484;28;19925;-83
2022/06/21 16:49:33;;;;;;;;;;;32.30;58.30;;;;;;6944854;28;19921;-82
2022/06/21 16:53:16;;;;;;;;;;;32.30;58.50;;;;;;6947398;28;20000;-82
2022/06/21 16:56:45;;;;;;;;;;;32.40;57.50;;;;;;6945146;28;19928;-83
2022/06/21 17:00:10;;;;;;;;;;;32.20;58.60;;;;;;6945256;28;19984;-82
2022/06/21 17:03:40;;;;;;;;;;;32.40;58.70;;;;;;6946438;28;20011;-83
2022/06/21 17:07:11;;;;;;;;;;;32.20;58.20;;;;;;6941468;28;19976;-85
2022/06/21 17:14:18;;;;;;;;;;;32.30;57.70;;;;;;6947213;28;19956;-82
2022/06/21 17:17:56;;;;;;;;;;;32.50;57.60;;;;;;6946376;28;20286;-84
2022/06/21 17:21:23;;;;;;;;;;;32.50;57.20;;;;;;6944988;28;19967;-85
2022/06/21 17:24:49;;;;;;;;;;;32.60;57.60;;;;;;6946911;28;19921;-84
2022/06/21 17:28:19;;;;;;;;;;;32.40;57.50;;;;;;6946086;28;20402;-84
2022/06/21 17:31:47;;;;;;;;;;;32.10;57.40;;;;;;6944745;28;19964;-86
2022/06/21 17:35:14;;;;;;;;;;;32.10;57.60;;;;;;6945924;28;19936;-83
2022/06/21 17:38:41;;;;;;;;;;;31.90;58.00;;;;;;6946460;28;20361;-82
2022/06/21 17:42:10;;;;;;;;;;;31.90;58.30;;;;;;6945765;28;19921;-79
2022/06/21 17:45:38;;;;;;;;;;;31.40;58.90;;;;;;6945327;28;19960;-77
2022/06/21 17:49:02;;;;;;;;;;;31.30;59.20;;;;;;6941783;28;19947;-78
2022/06/21 17:52:27;;;;;;;;;;;31.40;58.70;;;;;;6944422;28;19956;-80
2022/06/21 17:55:52;;;;;;;;;;;31.10;59.10;;;;;;6943465;28;19944;-79
2022/06/21 17:59:18;;;;;;;;;;;31.10;59.20;;;;;;6944096;28;19975;-77
2022/06/21 18:02:57;;;;;;;;;;;31.00;63.50;;;;;;6944133;28;19921;-80
2022/06/21 18:06:27;;;;;;;;;;;30.90;61.30;;;;;;6944218;28;20429;-78
2022/06/21 18:09:56;;;;;;;;;;;30.80;60.80;;;;;;6943642;28;20000;-79
2022/06/21 18:13:24;;;;;;;;;;;30.70;61.00;;;;;;6943097;28;20377;-80
2022/06/21 18:16:58;;;;;;;;;;;30.60;61.50;;;;;;6943775;28;19960;-79
2022/06/21 18:20:30;;;;;;;;;;;30.40;61.10;;;;;;6916754;28;19925;-78
2022/06/21 18:23:57;;;;;;;;;;;30.20;62.10;;;;;;6916605;28;19921;-79
2022/06/21 18:27:25;;;;;;;;;;;30.20;61.90;;;;;;6916724;28;20322;-77
2022/06/21 18:30:57;;;;;;;;;;;30.10;62.60;;;;;;6929255;28;19921;-80
2022/06/21 18:34:20;;;;;;;;;;;30.10;62.90;;;;;;6927674;28;20393;-78
2022/06/21 18:37:54;;;;;;;;;;;29.70;63.70;;;;;;6937248;28;19920;-78
2022/06/21 18:41:18;;;;;;;;;;;29.70;63.70;;;;;;6940245;28;19974;-79
2022/06/21 18:44:48;;;;;;;;;;;29.50;64.00;;;;;;6938254;28;19974;-79
2022/06/21 18:48:25;;;;;;;;;;;29.10;64.60;;;;;;6939683;28;19928;-77
2022/06/21 18:51:54;;;;;;;;;;;29.20;66.10;;;;;;6937890;28;19967;-77
2022/06/21 18:55:37;;;;;;;7.40;3.30;;;29.20;66.90;;;;;;6933256;28;20397;-78
2022/06/21 18:59:14;;;;;;;6.55;3.25;;;29.10;69.30;;;;;;6936025;28;20957;-79
2022/06/21 19:02:45;;;;;;;5.97;3.50;;;29.00;67.80;;;;;;6938168;28;20471;-79
2022/06/21 19:10:06;;;;;;;5.07;3.10;;;28.80;68.30;;;;;;6935442;28;20916;-79
2022/06/21 19:13:35;;;;;;;7.43;3.40;;;28.80;68.90;;;;;;6934299;28;20496;-80
2022/06/21 19:17:36;;;;;;;5.60;3.17;;;28.60;68.80;;;;;;6937111;28;20442;-77
2022/06/21 19:21:07;;;;;;;8.43;3.43;;;28.60;68.90;;;;;;6935543;28;20442;-76
2022/06/21 19:25:01;;;;;;;12.02;7.95;;;28.50;69.00;;;;;;6935635;28;20482;-78
2022/06/21 19:28:39;;;;;;;7.18;3.88;;;28.50;69.30;;;;;;6933611;28;20430;-79
2022/06/21 19:32:33;;;;;;;7.05;3.70;;;28.40;69.80;;;;;;6932861;28;20450;-78
2022/06/21 19:36:22;;;;;;;7.95;3.97;;;28.40;70.20;;;;;;6932646;28;21112;-78
2022/06/21 19:40:15;;;;;;;7.18;3.63;;;28.20;70.60;;;;;;6933778;28;20447;-80
2022/06/21 19:44:23;;;;;;;7.50;3.87;;;28.20;71.20;;;;;;6925349;28;20462;-77
2022/06/21 19:47:51;;;;;;;6.22;3.45;;;28.00;71.50;;;;;;6922314;28;20438;-80
2022/06/21 19:51:20;;;;;;;6.72;3.97;;;27.90;71.90;;;;;;6939993;28;20485;-78
2022/06/21 19:54:46;;;;;;;5.63;3.60;;;27.80;71.60;;;;;;6933792;28;20841;-78
2022/06/21 19:58:28;;;;;;;7.95;3.88;;;27.60;72.20;;;;;;6934702;28;20471;-80
2022/06/21 20:02:14;;;;;;;6.18;3.90;;;27.50;72.60;;;;;;6938320;28;20434;-77
2022/06/21 20:06:14;;;;;;;6.82;3.80;;;27.50;72.40;;;;;;6940015;28;20442;-79
2022/06/21 20:09:40;;;;;;;6.28;3.70;;;27.50;72.90;;;;;;6940965;28;20892;-79
2022/06/21 20:13:27;;;;;;;8.48;4.50;;;27.30;75.40;;;;;;6940349;28;20431;-77
2022/06/21 20:16:56;;;;;;;10.50;6.88;;;27.10;77.20;;;;;;6930800;28;20943;-78
2022/06/21 20:20:30;;;;;;;7.10;4.20;;;27.00;77.80;;;;;;6942853;28;21098;-77
2022/06/21 20:24:17;;;;;;;7.28;3.60;;;27.00;74.20;;;;;;6942648;28;20439;-78
2022/06/21 20:28:00;;;;;;;6.70;3.38;;;27.00;73.00;;;;;;6943543;28;20443;-80
2022/06/21 20:31:26;;;;;;;6.72;3.67;;;27.00;72.60;;;;;;6940997;28;20481;-78